Latest Weather Observations for Edithburgh

IDS60801

Issued at 12:31 pm CST Tuesday 4 August 2015 (issued every 30 minutes, with the page automatically refreshed every 10 minutes)

About weather observations | Map of weather stations | Latest weather observations for SA | Other Formats
Station Details ID: 022046 Name: EDITHBURGH Lat: -35.11 Lon: 137.74 Height: 6.0 m
Data from the previous 72 hours. | See also: Recent months at Edithburgh
Date/Time
CST
Temp
°C
App
Temp
°C
Dew
Point
Rel
Hum
%
Delta-T
°C
Wind Press
QNH
hPa
Press
MSL
hPa
Rain
since 9 am
mm
Dir
 
Spd
km/h
Gust
km/h
Spd
kts
Gust
kts
04/12:30pm 12.6 8.9 7.9 73 2.3 WSW 17 26 9 14 1026.6 1026.6 0.2
04/12:00pm 12.2 9.3 8.1 76 2.0 WSW 13 19 7 10 1027.0 1027.0 0.2
04/11:30am 11.0 8.5 8.3 83 1.3 W 11 17 6 9 1027.5 1027.5 0.2
04/11:00am 12.0 8.9 7.4 73 2.2 NW 13 17 7 9 1027.7 1027.7 0.2
04/10:30am 12.7 9.9 8.4 75 2.1 WNW 13 17 7 9 1027.7 1027.7 0.2
04/10:00am 11.3 8.4 8.2 81 1.5 WNW 13 15 7 8 1027.7 1027.7 0.0
04/09:30am 11.4 8.9 8.3 81 1.5 WNW 11 15 6 8 1027.7 1027.7 0.0
04/09:00am 9.8 7.6 7.9 88 0.9 NW 9 11 5 6 1027.8 1027.8 0.4
04/08:30am 8.3 6.3 7.0 91 0.6 WNW 7 9 4 5 1027.8 1027.8 0.4
04/08:00am 7.0 4.4 5.9 93 0.5 WNW 9 13 5 7 1027.6 1027.6 0.4
04/07:30am 5.8 1.7 4.6 92 0.5 WNW 15 19 8 10 1027.5 1027.5 0.4
04/07:00am 4.0 0.0 3.0 93 0.4 NW 13 15 7 8 1027.3 1027.3 0.4
04/06:30am 4.3 1.1 3.3 93 0.4 WNW 9 13 5 7 1027.1 1027.1 0.4
04/06:00am 4.7 0.8 3.5 92 0.5 NNW 13 15 7 8 1027.1 1027.1 0.4
04/05:30am 7.3 5.0 5.5 88 0.8 WNW 7 9 4 5 1027.0 1027.0 0.4
04/05:00am 6.9 4.6 5.5 91 0.6 NW 7 7 4 4 1027.1 1027.1 0.4
04/04:30am 6.3 3.9 5.2 93 0.5 NW 7 9 4 5 1027.0 1027.0 0.4
04/04:00am 5.3 2.9 4.4 94 0.4 WNW 6 7 3 4 1027.0 1027.0 0.4
04/03:30am 3.3 0.0 2.3 93 0.4 NW 9 9 5 5 1027.2 1027.2 0.4
04/03:00am 3.5 0.8 2.7 94 0.3 WNW 6 7 3 4 1027.3 1027.3 0.4
04/02:30am 3.5 0.7 2.2 91 0.5 WNW 6 9 3 5 1027.4 1027.4 0.4
04/02:00am 4.7 1.9 3.2 90 0.6 WNW 7 9 4 5 1027.4 1027.4 0.4
04/01:30am 6.0 3.0 4.1 88 0.8 WNW 9 11 5 6 1027.6 1027.6 0.4
04/01:00am 8.5 6.5 6.1 85 1.1 WSW 6 7 3 4 1027.6 1027.6 0.4
04/12:30am 7.7 4.9 5.0 83 1.2 SW 9 11 5 6 1027.8 1027.8 0.4
04/12:00am 7.1 4.6 4.8 85 1.0 W 7 9 4 5 1027.9 1027.9 0.4
 
Date/Time
CST
Temp
°C
App
Temp
°C
Dew
Point
Rel
Hum
%
Delta-T
°C
Wind Press
QNH
hPa
Press
MSL
hPa
Rain
since 9 am
mm
Dir
 
Spd
km/h
Gust
km/h
Spd
kts
Gust
kts
03/11:30pm 6.6 4.1 4.5 86 0.9 WSW 7 11 4 6 1027.8 1027.8 0.4
03/11:00pm 5.2 2.5 3.8 91 0.6 W 7 7 4 4 1027.9 1027.9 0.4
03/10:30pm 5.4 2.7 3.7 89 0.7 W 7 9 4 5 1027.8 1027.8 0.4
03/10:00pm 7.2 4.7 4.7 84 1.1 WSW 7 9 4 5 1028.0 1028.0 0.4
03/09:30pm 8.3 4.8 5.4 82 1.3 SSW 13 17 7 9 1028.1 1028.1 0.4
03/09:00pm 8.5 4.9 5.1 79 1.5 SW 13 15 7 8 1027.9 1027.9 0.4
03/08:30pm 8.8 5.2 5.0 77 1.7 SW 13 19 7 10 1027.9 1027.9 0.4
03/08:00pm 9.3 6.5 5.3 76 1.8 SW 9 13 5 7 1027.9 1027.9 0.4
03/07:30pm 9.8 6.5 6.3 79 1.6 SSW 13 20 7 11 1027.7 1027.7 0.4
03/07:00pm 8.1 5.4 5.6 84 1.1 SW 9 13 5 7 1027.5 1027.5 0.4
03/06:30pm 8.7 5.7 5.8 82 1.3 SSW 11 15 6 8 1027.2 1027.2 0.4
03/06:00pm 9.5 5.9 6.9 84 1.2 SSW 15 22 8 12 1027.2 1027.2 0.4
03/05:30pm 9.8 6.7 5.6 75 1.9 SW 11 13 6 7 1026.9 1026.9 0.4
03/05:00pm 11.0 7.1 7.0 76 1.9 SSW 17 26 9 14 1026.8 1026.8 0.4
03/04:30pm 11.8 8.0 6.0 67 2.7 SW 15 22 8 12 1026.6 1026.6 0.4
03/04:00pm 11.6 8.4 6.7 72 2.3 SSW 13 22 7 12 1026.4 1026.4 0.4
03/03:30pm 11.7 8.4 6.4 70 2.5 SSW 13 17 7 9 1026.1 1026.1 0.4
03/03:00pm 10.3 6.1 8.4 88 0.9 SW 20 33 11 18 1026.0 1026.0 0.4
03/02:30pm 12.3 8.2 8.0 75 2.1 SSW 19 24 10 13 1025.7 1025.7 0.4
03/02:00pm 12.2 9.1 7.4 72 2.3 SW 13 17 7 9 1025.7 1025.7 0.4
03/01:30pm 10.4 4.8 8.8 90 0.8 SSW 28 35 15 19 1026.0 1026.0 0.4
03/01:00pm 12.8 8.4 6.5 65 3.0 SSW 19 26 10 14 1025.9 1025.9 0.4
03/12:30pm 12.7 8.9 7.5 70 2.5 SW 17 22 9 12 1026.1 1026.1 0.4
03/12:00pm 11.0 6.8 7.4 78 1.7 SW 19 28 10 15 1026.3 1026.3 0.2
03/11:30am 13.1 8.7 6.6 64 3.1 SW 19 28 10 15 1026.4 1026.4 0.2
03/11:00am 13.1 8.8 7.8 70 2.6 SSW 20 30 11 16 1026.4 1026.4 0.2
03/10:30am 12.3 7.7 6.6 68 2.7 SW 20 32 11 17 1026.3 1026.3 0.2
03/10:00am 12.2 7.4 7.4 72 2.3 SW 22 33 12 18 1026.0 1026.0 0.2
03/09:30am 11.8 6.6 7.4 74 2.1 SW 24 33 13 18 1025.8 1025.8 0.0
03/09:00am 12.0 7.5 7.0 71 2.4 SW 20 28 11 15 1025.5 1025.5 1.0
03/08:30am 11.4 6.0 6.5 72 2.3 SW 24 35 13 19 1025.2 1025.2 1.0
03/08:00am 11.2 6.2 6.5 73 2.2 SW 22 33 12 18 1024.7 1024.7 1.0
03/07:30am 11.3 5.5 6.1 70 2.4 SW 26 35 14 19 1024.4 1024.4 1.0
03/07:00am 10.9 6.4 6.9 76 1.9 SW 20 26 11 14 1024.0 1024.0 1.0
03/06:30am 10.9 6.0 7.1 77 1.8 SW 22 32 12 17 1023.6 1023.6 1.0
03/06:00am 10.8 6.8 8.1 83 1.3 WSW 19 32 10 17 1023.4 1023.4 1.0
03/05:30am 11.1 7.0 8.7 85 1.2 SW 20 30 11 16 1023.1 1023.1 1.0
03/05:00am 11.3 7.5 7.6 78 1.8 WSW 17 26 9 14 1022.9 1022.9 0.6
03/04:30am 11.2 6.7 8.5 83 1.3 SW 22 33 12 18 1022.8 1022.8 0.6
03/04:00am 11.9 6.8 6.1 67 2.7 WSW 22 33 12 18 1022.5 1022.5 0.6
03/03:30am 11.3 7.0 7.1 75 2.0 WSW 19 28 10 15 1022.6 1022.6 0.6
03/03:00am 11.6 6.7 6.7 72 2.3 WSW 22 33 12 18 1023.0 1023.0 0.6
03/02:30am 11.3 6.9 7.6 78 1.8 WSW 20 30 11 16 1022.9 1022.9 0.6
03/02:05am 11.3 5.6 8.2 81 1.5 WSW 28 54 15 29 1022.5 1022.5 0.6
03/02:00am 11.4 7.2 8.1 80 1.6 WSW 20 32 11 17 1022.5 1022.5 0.6
03/01:30am 11.8 6.8 8.1 78 1.8 WSW 24 35 13 19 1022.5 1022.5 0.6
03/01:00am 11.2 7.4 9.2 87 1.0 W 19 26 10 14 1022.4 1022.4 0.4
03/12:30am 11.0 6.7 9.4 90 0.8 W 22 32 12 17 1022.5 1022.5 0.2
03/12:00am 9.9 7.0 8.2 89 0.8 WNW 13 19 7 10 1022.4 1022.4 0.0
 
Date/Time
CST
Temp
°C
App
Temp
°C
Dew
Point
Rel
Hum
%
Delta-T
°C
Wind Press
QNH
hPa
Press
MSL
hPa
Rain
since 9 am
mm
Dir
 
Spd
km/h
Gust
km/h
Spd
kts
Gust
kts
02/11:30pm 10.5 8.0 8.4 87 1.0 W 11 17 6 9 1022.5 1022.5 0.0
02/11:00pm 10.9 7.0 8.7 86 1.1 WNW 19 26 10 14 1022.6 1022.6 0.0
02/10:30pm 11.1 7.2 8.7 85 1.2 W 19 24 10 13 1022.6 1022.6 0.0
02/10:00pm 9.5 5.5 6.7 83 1.3 WNW 17 20 9 11 1022.5 1022.5 0.0
02/09:30pm 8.7 5.0 6.3 85 1.1 WNW 15 19 8 10 1022.5 1022.5 0.0
02/09:00pm 9.8 5.7 6.3 79 1.6 WNW 17 20 9 11 1022.3 1022.3 0.0
02/08:30pm 10.1 6.1 6.7 79 1.6 WNW 17 22 9 12 1022.2 1022.2 0.0
02/08:00pm 11.9 7.6 6.9 71 2.4 W 19 32 10 17 1022.0 1022.0 0.0
02/07:30pm 11.9 7.3 6.6 70 2.5 W 20 30 11 16 1021.7 1021.7 0.0
02/07:00pm 12.0 7.4 6.3 68 2.7 W 20 33 11 18 1021.5 1021.5 0.0
02/06:30pm 11.3 7.7 8.4 82 1.4 W 17 24 9 13 1021.4 1021.4 0.0
02/06:00pm 11.6 6.8 9.0 84 1.3 W 24 32 13 17 1020.9 1020.9 0.0
02/05:30pm 11.6 6.0 8.6 82 1.5 WSW 28 46 15 25 1020.7 1020.7 0.0
02/05:24pm 11.3 5.9 9.5 89 0.9 W 28 46 15 25 1020.6 1020.6 0.0
02/05:00pm 12.3 7.4 8.5 77 1.9 W 24 33 13 18 1020.2 1020.2 0.0
02/04:30pm 12.9 7.6 8.5 74 2.2 W 26 35 14 19 1020.0 1020.0 0.0
02/04:00pm 13.2 9.2 9.0 75 2.1 W 20 28 11 15 1020.0 1020.0 0.0
02/03:33pm 13.1 7.5 8.9 75 2.1 WSW 28 48 15 26 1019.9 1019.9 0.0
02/03:30pm 13.9 8.5 8.0 67 2.9 W 26 35 14 19 1019.9 1019.9 0.0
02/03:00pm 13.2 7.5 8.4 72 2.4 W 28 44 15 24 1019.6 1019.7 0.0
02/02:30pm 14.4 7.5 7.2 62 3.5 WSW 33 46 18 25 1019.3 1019.4 0.0
02/02:00pm 14.3 8.1 7.8 65 3.2 W 30 46 16 25 1019.1 1019.2 0.0
02/01:30pm 14.2 8.2 7.2 63 3.4 W 28 43 15 23 1019.2 1019.3 0.0
02/01:00pm 14.3 7.4 7.1 62 3.5 W 33 46 18 25 1019.3 1019.4 0.0
02/12:38pm 14.7 7.9 6.9 59 3.8 W 32 50 17 27 1019.4 1019.5 0.0
02/12:30pm 14.6 8.4 8.0 64 3.3 W 30 44 16 24 1019.7 1019.8 0.0
02/12:00pm 14.4 7.7 7.5 63 3.4 W 32 44 17 24 1020.0 1020.0 0.0
02/11:30am 14.3 9.6 7.8 65 3.2 W 22 33 12 18 1020.2 1020.2 0.0
02/11:00am 13.6 7.9 6.5 62 3.4 W 26 39 14 21 1020.1 1020.1 0.0
02/10:30am 13.8 8.8 8.2 69 2.8 W 24 32 13 17 1020.1 1020.1 0.0
02/10:00am 12.9 8.1 7.3 69 2.7 WNW 22 32 12 17 1020.3 1020.3 0.0
02/09:30am 12.1 7.9 7.3 72 2.3 WNW 19 24 10 13 1020.2 1020.2 0.0
02/09:00am 11.3 7.9 7.6 78 1.8 WNW 15 22 8 12 1020.2 1020.2 1.0
02/08:30am 9.4 6.4 6.1 80 1.5 W 11 15 6 8 1020.0 1020.0 1.0
02/08:00am 8.3 4.8 5.4 82 1.3 WNW 13 17 7 9 1019.7 1019.8 1.0
02/07:30am 6.3 2.6 4.4 88 0.8 WNW 13 17 7 9 1019.4 1019.5 1.0
02/07:00am 6.2 2.8 4.1 86 0.9 NW 11 15 6 8 1019.2 1019.3 1.0
02/06:30am 7.2 3.1 4.4 82 1.2 WNW 15 22 8 12 1018.9 1019.0 1.0
02/06:00am 8.4 5.8 6.0 85 1.1 WNW 9 11 5 6 1018.7 1018.8 1.0
02/05:30am 8.4 6.1 5.5 82 1.3 WSW 7 13 4 7 1018.4 1018.5 1.0
02/05:00am 8.6 6.1 6.4 86 1.0 WNW 9 13 5 7 1018.5 1018.6 1.0
02/04:30am 8.5 5.9 6.3 86 1.0 WNW 9 13 5 7 1018.4 1018.5 0.8
02/04:00am 8.3 5.3 6.1 86 1.0 WNW 11 13 6 7 1018.2 1018.3 0.8
02/03:30am 8.1 5.5 6.1 87 0.9 WNW 9 11 5 6 1018.3 1018.4 0.8
02/03:00am 8.2 5.6 6.2 87 0.9 NW 9 13 5 7 1018.6 1018.7 0.8
02/02:30am 8.2 5.2 6.2 87 0.9 WNW 11 15 6 8 1018.9 1019.0 0.8
02/02:00am 7.8 4.8 6.0 88 0.8 NW 11 13 6 7 1018.7 1018.8 0.8
02/01:30am 7.2 4.5 5.6 89 0.7 NW 9 11 5 6 1018.7 1018.8 0.8
02/01:00am 7.8 5.2 6.0 88 0.8 WNW 9 11 5 6 1018.9 1019.0 0.8
02/12:30am 8.3 5.4 6.6 89 0.8 WNW 11 15 6 8 1019.3 1019.4 0.8
02/12:00am 8.2 5.7 6.5 89 0.8 WNW 9 13 5 7 1019.1 1019.2 0.8
 
Date/Time
CST
Temp
°C
App
Temp
°C
Dew
Point
Rel
Hum
%
Delta-T
°C
Wind Press
QNH
hPa
Press
MSL
hPa
Rain
since 9 am
mm
Dir
 
Spd
km/h
Gust
km/h
Spd
kts
Gust
kts
01/11:30pm 8.2 5.4 6.9 91 0.6 WNW 11 13 6 7 1019.1 1019.2 0.8
01/11:00pm 8.3 5.9 6.8 90 0.7 WNW 9 13 5 7 1019.1 1019.2 0.8
01/10:30pm 8.6 5.8 7.1 90 0.7 NW 11 13 6 7 1019.0 1019.1 0.8
01/10:00pm 8.7 6.3 7.2 90 0.7 WNW 9 11 5 6 1018.9 1019.0 0.8
01/09:30pm 8.8 6.4 6.9 88 0.9 WNW 9 13 5 7 1018.9 1019.0 0.8
01/09:00pm 8.6 6.6 7.1 90 0.7 NW 7 9 4 5 1018.7 1018.8 0.8
01/08:30pm 8.6 7.5 6.9 89 0.8 SW 2 4 1 2 1018.4 1018.5 0.8
01/08:00pm 8.6 6.7 6.7 88 0.9 W 6 7 3 4 1018.2 1018.3 0.6
01/07:30pm 8.4 6.6 7.1 91 0.6 W 6 11 3 6 1017.6 1017.7 0.6
01/07:00pm 8.8 6.9 7.5 91 0.6 N 7 9 4 5 1017.5 1017.6 0.4
01/06:30pm 8.8 6.5 7.3 90 0.7 N 9 11 5 6 1017.1 1017.1 0.2
01/06:00pm 9.1 8.0 6.7 85 1.1 ENE 2 6 1 3 1017.1 1017.1 0.2
01/05:30pm 9.2 6.3 6.4 83 1.3 SW 11 13 6 7 1017.0 1017.0 0.2
01/05:00pm 10.6 8.0 4.1 64 2.9 ENE 7 9 4 5 1016.8 1016.8 0.2
01/04:30pm 10.4 8.2 5.1 69 2.4 SSE 6 9 3 5 1016.6 1016.6 0.2
01/04:00pm 10.6 8.3 4.8 67 2.6 ENE 6 7 3 4 1016.2 1016.2 0.2
01/03:30pm 10.6 8.2 5.3 70 2.4 S 7 13 4 7 1016.8 1016.8 0.2
01/03:00pm 10.6 7.1 5.6 71 2.3 SSE 13 19 7 10 1016.2 1016.2 0.2
01/02:30pm 10.6 7.7 6.3 75 2.0 SSE 11 17 6 9 1016.2 1016.2 0.2
01/02:00pm 11.4 8.6 5.0 65 2.9 SSE 9 15 5 8 1016.8 1016.8 0.0
01/01:30pm 11.6 7.8 3.7 58 3.5 ESE 13 17 7 9 1015.1 1015.1 0.0
01/01:00pm 11.4 8.5 4.5 62 3.1 SSE 9 11 5 6 1017.0 1017.0 0.0

Other Formats:

Comma delimited format used in spreadsheet applications
http://www.bom.gov.au/fwo/IDS60801/IDS60801.94809.axf

JavaScript Object Notation format (JSON) in row-major order
http://www.bom.gov.au/fwo/IDS60801/IDS60801.94809.json